createdAt,value
2018-08-09T00:00:27.452Z,65.51
2018-08-09T00:01:27.636Z,65.43
2018-08-09T00:02:27.304Z,65.47
2018-08-09T00:03:27.518Z,65.51
2018-08-09T00:04:27.289Z,65.46
2018-08-09T00:05:27.579Z,65.46
2018-08-09T00:06:27.493Z,65.45
2018-08-09T00:07:27.455Z,65.54
2018-08-09T00:08:27.365Z,65.41
2018-08-09T00:09:27.500Z,65.47
2018-08-09T00:10:27.480Z,65.5
2018-08-09T00:11:27.427Z,65.45
2018-08-09T00:12:27.408Z,65.53
2018-08-09T00:13:27.295Z,65.51
2018-08-09T00:14:27.612Z,65.5
2018-08-09T00:15:27.705Z,65.44
2018-08-09T00:16:27.423Z,65.43
2018-08-09T00:17:27.466Z,65.42
2018-08-09T00:18:27.460Z,65.49
2018-08-09T00:19:27.442Z,65.45
2018-08-09T00:20:27.409Z,65.45
2018-08-09T00:21:27.428Z,65.45
2018-08-09T00:22:27.269Z,65.48
2018-08-09T00:23:27.511Z,65.52
2018-08-09T00:24:27.779Z,65.48
2018-08-09T00:25:27.360Z,65.46
2018-08-09T00:26:27.507Z,65.51
2018-08-09T00:27:27.512Z,65.43
2018-08-09T00:28:27.408Z,65.41
2018-08-09T00:29:27.478Z,65.5
2018-08-09T00:30:27.539Z,65.49
2018-08-09T00:31:27.312Z,65.48
2018-08-09T00:32:27.522Z,65.5
2018-08-09T00:33:27.692Z,65.47
2018-08-09T00:34:27.521Z,65.5
2018-08-09T00:35:27.526Z,65.41
2018-08-09T00:36:27.351Z,65.5
2018-08-09T00:37:27.598Z,65.45
2018-08-09T00:38:27.527Z,65.46
2018-08-09T00:39:27.594Z,65.42
2018-08-09T00:40:27.355Z,65.51
2018-08-09T00:41:27.454Z,65.48
2018-08-09T00:42:27.471Z,65.46
2018-08-09T00:43:27.379Z,65.49
2018-08-09T00:44:27.671Z,65.5
2018-08-09T00:45:27.377Z,65.51
2018-08-09T00:46:27.357Z,65.42
2018-08-09T00:47:27.599Z,65.47
2018-08-09T00:48:27.437Z,65.51
2018-08-09T00:49:27.445Z,65.43
2018-08-09T00:50:27.323Z,65.44
2018-08-09T00:51:27.405Z,65.52
2018-08-09T00:52:27.357Z,65.39
2018-08-09T00:53:27.469Z,65.49
2018-08-09T00:54:27.353Z,65.45
2018-08-09T00:55:27.485Z,65.45
2018-08-09T00:56:27.303Z,65.44
2018-08-09T00:57:27.514Z,65.42
2018-08-09T00:58:27.336Z,65.52
2018-08-09T00:59:27.391Z,65.4
2018-08-09T01:00:27.416Z,65.46
2018-08-09T01:01:27.502Z,65.37
2018-08-09T01:02:27.551Z,65.47
2018-08-09T01:03:27.447Z,65.42
2018-08-09T01:04:27.483Z,65.43
2018-08-09T01:05:27.355Z,65.43
2018-08-09T01:06:27.483Z,65.48
2018-08-09T01:07:27.254Z,65.39
2018-08-09T01:08:27.453Z,65.44
2018-08-09T01:09:27.298Z,65.45
2018-08-09T01:10:27.442Z,65.41
2018-08-09T01:11:27.383Z,65.37
2018-08-09T01:12:27.431Z,65.39
2018-08-09T01:13:27.342Z,65.47
2018-08-09T01:14:27.517Z,65.44
2018-08-09T01:15:27.586Z,65.41
2018-08-09T01:16:27.271Z,65.44
2018-08-09T01:17:27.360Z,65.48
2018-08-09T01:18:27.356Z,65.38
2018-08-09T01:19:27.788Z,65.43
2018-08-09T01:20:27.424Z,65.43
2018-08-09T01:21:27.561Z,65.44
2018-08-09T01:22:27.483Z,65.45
2018-08-09T01:23:27.379Z,65.51
2018-08-09T01:24:27.312Z,65.4
2018-08-09T01:25:27.357Z,65.42
2018-08-09T01:26:27.285Z,65.51
2018-08-09T01:27:27.203Z,65.45
2018-08-09T01:28:27.306Z,65.49
2018-08-09T01:29:27.357Z,65.53
2018-08-09T01:30:27.605Z,65.51
2018-08-09T01:31:27.527Z,65.54
2018-08-09T01:32:27.389Z,65.48
2018-08-09T01:33:27.505Z,65.43
2018-08-09T01:34:27.729Z,65.4
2018-08-09T01:35:27.413Z,65.4
2018-08-09T01:36:27.210Z,65.46
2018-08-09T01:37:27.469Z,65.47
2018-08-09T01:38:27.421Z,65.39
2018-08-09T01:39:27.657Z,65.4
2018-08-09T01:40:27.388Z,65.51
2018-08-09T01:41:27.411Z,65.4
2018-08-09T01:42:27.431Z,65.45
2018-08-09T01:43:27.568Z,65.35
2018-08-09T01:44:27.676Z,65.43
2018-08-09T01:45:27.375Z,65.46
2018-08-09T01:46:27.357Z,65.35
2018-08-09T01:47:27.337Z,65.41
2018-08-09T01:48:27.473Z,65.48
2018-08-09T01:49:27.612Z,65.49
2018-08-09T01:50:27.388Z,65.41
2018-08-09T01:51:27.411Z,65.43
2018-08-09T01:52:27.518Z,65.48
2018-08-09T01:53:27.379Z,65.47
2018-08-09T01:54:27.505Z,65.42
2018-08-09T01:55:27.325Z,65.4
2018-08-09T01:56:27.348Z,65.41
2018-08-09T01:57:27.350Z,65.49
2018-08-09T01:58:27.579Z,65.53
2018-08-09T01:59:27.370Z,65.42
2018-08-09T02:00:27.272Z,65.35
2018-08-09T02:01:27.361Z,65.45
2018-08-09T02:02:27.280Z,65.4
2018-08-09T02:03:27.389Z,65.45
2018-08-09T02:04:27.763Z,65.46
2018-08-09T02:05:27.280Z,65.4
2018-08-09T02:06:27.673Z,65.42
2018-08-09T02:07:27.252Z,65.4
2018-08-09T02:08:27.429Z,65.41
2018-08-09T02:09:27.484Z,65.46
2018-08-09T02:10:27.273Z,65.42
2018-08-09T02:11:27.351Z,65.46
2018-08-09T02:12:27.435Z,65.39
2018-08-09T02:13:27.413Z,65.45
2018-08-09T02:14:27.311Z,65.4
2018-08-09T02:15:27.426Z,65.43
2018-08-09T02:16:27.276Z,65.47
2018-08-09T02:17:27.514Z,65.49
2018-08-09T02:18:27.298Z,65.52
2018-08-09T02:19:27.634Z,65.53
2018-08-09T02:20:27.352Z,65.42
2018-08-09T02:21:27.275Z,65.45
2018-08-09T02:22:27.456Z,65.45
2018-08-09T02:23:27.413Z,65.48
2018-08-09T02:24:27.457Z,65.46
2018-08-09T02:25:27.279Z,65.39
2018-08-09T02:26:27.662Z,65.42
2018-08-09T02:27:27.395Z,65.42
2018-08-09T02:28:27.393Z,65.46
2018-08-09T02:29:27.347Z,65.36
2018-08-09T02:30:27.544Z,65.43
2018-08-09T02:31:27.391Z,65.35
2018-08-09T02:32:27.368Z,65.43
2018-08-09T02:33:27.423Z,65.46
2018-08-09T02:34:27.344Z,65.39
2018-08-09T02:35:27.304Z,65.42
2018-08-09T02:36:27.478Z,65.48
2018-08-09T02:37:27.323Z,65.4
2018-08-09T02:38:27.464Z,65.43
2018-08-09T02:39:27.340Z,65.4
2018-08-09T02:40:27.508Z,65.43
2018-08-09T02:41:27.472Z,65.45
2018-08-09T02:42:27.323Z,65.45
2018-08-09T02:43:27.281Z,65.47
2018-08-09T02:44:27.339Z,65.45
2018-08-09T02:45:27.383Z,65.33
2018-08-09T02:46:27.505Z,65.48
2018-08-09T02:47:27.385Z,65.42
2018-08-09T02:48:27.526Z,65.43
2018-08-09T02:49:27.369Z,65.42
2018-08-09T02:50:27.456Z,65.51
2018-08-09T02:51:27.598Z,65.42
2018-08-09T02:52:27.184Z,65.36
2018-08-09T02:53:27.380Z,65.43
2018-08-09T02:54:27.403Z,65.43
2018-08-09T02:55:27.359Z,65.4
2018-08-09T02:56:27.355Z,65.43
2018-08-09T02:57:27.388Z,65.42
2018-08-09T02:58:27.483Z,65.47
2018-08-09T02:59:27.481Z,65.42
2018-08-09T03:00:27.597Z,65.48
2018-08-09T03:01:27.384Z,65.47
2018-08-09T03:02:27.733Z,65.44
2018-08-09T03:03:27.351Z,65.37
2018-08-09T03:04:27.274Z,65.39
2018-08-09T03:05:27.323Z,65.4
2018-08-09T03:06:27.387Z,65.44
2018-08-09T03:07:27.324Z,65.32
2018-08-09T03:08:27.338Z,65.41
2018-08-09T03:09:27.483Z,65.46
2018-08-09T03:10:27.277Z,65.35
2018-08-09T03:11:27.472Z,65.35
2018-08-09T03:12:27.522Z,65.48
2018-08-09T03:13:27.557Z,65.46
2018-08-09T03:14:27.673Z,65.42
2018-08-09T03:15:27.662Z,65.41
2018-08-09T03:16:27.548Z,65.46
2018-08-09T03:17:27.417Z,65.4
2018-08-09T03:18:27.398Z,65.42
2018-08-09T03:19:27.361Z,65.36
2018-08-09T03:20:27.293Z,65.42
2018-08-09T03:21:27.534Z,65.37
2018-08-09T03:22:27.449Z,65.37
2018-08-09T03:23:27.366Z,65.48
2018-08-09T03:24:27.697Z,65.41
2018-08-09T03:25:27.842Z,65.41
2018-08-09T03:26:27.731Z,65.44
2018-08-09T03:27:27.380Z,65.43
2018-08-09T03:28:27.176Z,65.43
2018-08-09T03:29:27.364Z,65.37
2018-08-09T03:30:27.703Z,65.42
2018-08-09T03:31:27.242Z,65.36
2018-08-09T03:32:27.780Z,65.43
2018-08-09T03:33:27.459Z,65.48
2018-08-09T03:34:27.370Z,65.4
2018-08-09T03:35:27.673Z,65.36
2018-08-09T03:36:27.270Z,65.34
2018-08-09T03:37:27.296Z,65.37
2018-08-09T03:38:27.279Z,65.4
2018-08-09T03:39:27.336Z,65.43
2018-08-09T03:40:27.291Z,65.36
2018-08-09T03:41:27.443Z,65.45
2018-08-09T03:42:27.459Z,65.41
2018-08-09T03:43:27.500Z,65.44
2018-08-09T03:44:27.377Z,65.42
2018-08-09T03:45:27.266Z,65.42
2018-08-09T03:46:27.196Z,65.47
2018-08-09T03:47:27.295Z,65.4
2018-08-09T03:48:27.580Z,65.44
2018-08-09T03:49:27.435Z,65.35
2018-08-09T03:50:27.370Z,65.41
2018-08-09T03:51:27.472Z,65.37
2018-08-09T03:52:27.445Z,65.37
2018-08-09T03:53:27.431Z,65.41
2018-08-09T03:54:27.420Z,65.37
2018-08-09T03:55:27.224Z,65.38
2018-08-09T03:56:27.450Z,65.45
2018-08-09T03:57:27.473Z,65.41
2018-08-09T03:58:27.311Z,65.43
2018-08-09T03:59:27.316Z,65.42
2018-08-09T04:00:27.462Z,65.44
2018-08-09T04:01:27.280Z,65.43
2018-08-09T04:02:27.455Z,65.42
2018-08-09T04:03:27.495Z,65.38
2018-08-09T04:04:27.128Z,65.43
2018-08-09T04:05:27.375Z,65.45
2018-08-09T04:06:27.322Z,65.43
2018-08-09T04:07:27.242Z,65.43
2018-08-09T04:08:27.251Z,65.41
2018-08-09T04:09:27.294Z,65.39
2018-08-09T04:10:27.316Z,65.39
2018-08-09T04:11:27.412Z,65.44
2018-08-09T04:12:27.273Z,65.49
2018-08-09T04:13:27.298Z,65.48
2018-08-09T04:14:27.428Z,65.37
2018-08-09T04:15:27.242Z,65.36
2018-08-09T04:16:27.315Z,65.37
2018-08-09T04:17:27.619Z,65.37
2018-08-09T04:18:27.339Z,65.34
2018-08-09T04:19:27.313Z,65.39
2018-08-09T04:20:27.349Z,65.37
2018-08-09T04:21:27.209Z,65.39
2018-08-09T04:22:27.310Z,65.31
2018-08-09T04:23:27.319Z,65.36
2018-08-09T04:24:27.357Z,65.45
2018-08-09T04:25:27.291Z,65.38
2018-08-09T04:26:27.630Z,65.42
2018-08-09T04:27:27.235Z,65.43
2018-08-09T04:28:27.438Z,65.44
2018-08-09T04:29:27.267Z,65.37
2018-08-09T04:30:27.442Z,65.41
2018-08-09T04:31:27.160Z,65.42
2018-08-09T04:32:27.384Z,65.41
2018-08-09T04:33:27.472Z,65.39
2018-08-09T04:34:27.382Z,65.39
2018-08-09T04:35:27.477Z,65.41
2018-08-09T04:36:27.434Z,65.36
2018-08-09T04:37:27.387Z,65.46
2018-08-09T04:38:27.350Z,65.44
2018-08-09T04:39:27.261Z,65.38
2018-08-09T04:40:27.265Z,65.35
2018-08-09T04:41:27.362Z,65.42
2018-08-09T04:42:27.290Z,65.41
2018-08-09T04:43:27.363Z,65.39
2018-08-09T04:44:27.571Z,65.39
2018-08-09T04:45:27.459Z,65.37
2018-08-09T04:46:27.401Z,65.37
2018-08-09T04:47:27.276Z,65.41
2018-08-09T04:48:27.503Z,65.41
2018-08-09T04:49:27.355Z,65.37
2018-08-09T04:50:27.428Z,65.41
2018-08-09T04:51:27.402Z,65.38
2018-08-09T04:52:27.343Z,65.44
2018-08-09T04:53:27.279Z,65.41
2018-08-09T04:54:27.477Z,65.43
2018-08-09T04:55:27.678Z,65.38
2018-08-09T04:56:27.314Z,65.42
2018-08-09T04:57:27.645Z,65.35
2018-08-09T04:58:27.466Z,65.49
2018-08-09T04:59:27.349Z,65.43
2018-08-09T05:00:27.281Z,65.38
2018-08-09T05:01:27.431Z,65.37
2018-08-09T05:02:27.473Z,65.49
2018-08-09T05:03:27.393Z,65.44
2018-08-09T05:04:27.467Z,65.37
2018-08-09T05:05:27.452Z,65.39
2018-08-09T05:06:27.240Z,65.44
2018-08-09T05:07:27.240Z,65.36
2018-08-09T05:08:27.392Z,65.37
2018-08-09T05:09:27.452Z,65.46
2018-08-09T05:10:27.406Z,65.45
2018-08-09T05:11:27.265Z,65.43
2018-08-09T05:12:27.347Z,65.41
2018-08-09T05:13:27.491Z,65.35
2018-08-09T05:14:27.348Z,65.42
2018-08-09T05:15:27.292Z,65.41
2018-08-09T05:16:27.225Z,65.36
2018-08-09T05:17:27.346Z,65.39
2018-08-09T05:18:27.307Z,65.35
2018-08-09T05:19:27.453Z,65.35
2018-08-09T05:20:27.294Z,65.38
2018-08-09T05:21:27.463Z,65.43
2018-08-09T05:22:27.286Z,65.37
2018-08-09T05:23:27.460Z,65.44
2018-08-09T05:24:27.329Z,65.49
2018-08-09T05:25:27.246Z,65.37
2018-08-09T05:26:27.357Z,65.38
2018-08-09T05:27:27.300Z,65.45
2018-08-09T05:28:27.498Z,65.37
2018-08-09T05:29:27.484Z,65.42
2018-08-09T05:30:27.382Z,65.32
2018-08-09T05:31:27.248Z,65.41
2018-08-09T05:32:27.460Z,65.37
2018-08-09T05:33:27.397Z,65.35
2018-08-09T05:34:27.360Z,65.37
2018-08-09T05:35:27.618Z,65.45
2018-08-09T05:36:27.320Z,65.41
2018-08-09T05:37:27.366Z,65.37
2018-08-09T05:38:27.466Z,65.37
2018-08-09T05:39:27.436Z,65.46
2018-08-09T05:40:27.290Z,65.34
2018-08-09T05:41:27.677Z,65.41
2018-08-09T05:42:27.394Z,65.27
2018-08-09T05:43:27.424Z,65.38
2018-08-09T05:44:27.261Z,65.35
2018-08-09T05:45:27.371Z,65.43
2018-08-09T05:46:27.383Z,65.37
2018-08-09T05:47:27.288Z,65.39
2018-08-09T05:48:27.410Z,65.33
2018-08-09T05:49:27.408Z,65.39
2018-08-09T05:50:27.322Z,65.3
2018-08-09T05:51:27.303Z,65.34
2018-08-09T05:52:27.321Z,65.39
2018-08-09T05:53:27.478Z,65.39
2018-08-09T05:54:27.204Z,65.36
2018-08-09T05:55:28.142Z,65.31
2018-08-09T05:56:27.462Z,65.42
2018-08-09T05:57:28.046Z,65.38
2018-08-09T05:58:27.368Z,65.42
2018-08-09T05:59:27.396Z,65.3
2018-08-09T06:00:27.609Z,65.42
2018-08-09T06:01:27.287Z,65.38
2018-08-09T06:02:27.393Z,65.42
2018-08-09T06:03:27.262Z,65.34
2018-08-09T06:04:27.639Z,65.46
2018-08-09T06:05:27.209Z,65.37
2018-08-09T06:06:27.506Z,65.36
2018-08-09T06:07:27.455Z,65.4
2018-08-09T06:08:27.432Z,65.34
2018-08-09T06:09:27.366Z,65.33
2018-08-09T06:10:27.415Z,65.31
2018-08-09T06:11:27.313Z,65.29
2018-08-09T06:12:27.246Z,65.43
2018-08-09T06:13:27.533Z,65.3
2018-08-09T06:14:27.366Z,65.31
2018-08-09T06:15:27.376Z,65.39
2018-08-09T06:16:27.279Z,65.42
2018-08-09T06:17:27.335Z,65.38
2018-08-09T06:18:27.440Z,65.29
2018-08-09T06:19:27.343Z,65.32
2018-08-09T06:20:27.456Z,65.35
2018-08-09T06:21:27.293Z,65.38
2018-08-09T06:22:27.332Z,65.3
2018-08-09T06:23:27.438Z,65.38
2018-08-09T06:24:27.281Z,65.38
2018-08-09T06:25:27.452Z,65.36
2018-08-09T06:26:27.530Z,65.37
2018-08-09T06:27:27.437Z,65.38
2018-08-09T06:28:27.338Z,65.39
2018-08-09T06:29:27.255Z,65.4
2018-08-09T06:30:27.818Z,65.38
2018-08-09T06:31:27.224Z,65.36
2018-08-09T06:32:27.400Z,65.36
2018-08-09T06:33:27.476Z,65.36
2018-08-09T06:34:27.319Z,65.36
2018-08-09T06:35:27.308Z,65.33
2018-08-09T06:36:27.482Z,65.41
2018-08-09T06:37:27.351Z,65.39
2018-08-09T06:38:27.400Z,65.41
2018-08-09T06:39:27.262Z,65.32
2018-08-09T06:40:27.337Z,65.33
2018-08-09T06:41:27.438Z,65.33
2018-08-09T06:42:27.335Z,65.38
2018-08-09T06:43:27.356Z,65.29
2018-08-09T06:44:27.341Z,65.32
2018-08-09T06:45:27.540Z,65.41
2018-08-09T06:46:27.264Z,65.43
2018-08-09T06:47:27.727Z,65.33
2018-08-09T06:48:27.434Z,65.37
2018-08-09T06:49:27.378Z,65.33
2018-08-09T06:50:27.373Z,65.31
2018-08-09T06:51:27.688Z,65.28
2018-08-09T06:52:27.329Z,65.3
2018-08-09T06:53:27.442Z,65.32
2018-08-09T06:54:27.462Z,65.27
2018-08-09T06:55:27.801Z,65.29
2018-08-09T06:56:27.193Z,65.38
2018-08-09T06:57:27.954Z,65.29
2018-08-09T06:58:27.706Z,65.32
2018-08-09T06:59:27.358Z,65.37
2018-08-09T07:00:27.581Z,65.35
2018-08-09T07:01:27.353Z,65.42
2018-08-09T07:02:27.430Z,65.32
2018-08-09T07:03:27.435Z,65.35
2018-08-09T07:04:27.408Z,65.27
2018-08-09T07:05:27.282Z,65.27
2018-08-09T07:06:27.177Z,65.29
2018-08-09T07:07:27.399Z,65.32
2018-08-09T07:08:27.674Z,65.36
2018-08-09T07:09:27.366Z,65.35
2018-08-09T07:10:27.276Z,65.34
2018-08-09T07:11:27.316Z,65.29
2018-08-09T07:12:27.436Z,65.33
2018-08-09T07:13:27.636Z,65.34
2018-08-09T07:14:27.253Z,65.35
2018-08-09T07:15:27.198Z,65.31
2018-08-09T07:16:27.610Z,65.29
2018-08-09T07:17:27.315Z,65.34
2018-08-09T07:18:27.283Z,65.34
2018-08-09T07:19:27.454Z,65.26
2018-08-09T07:20:27.680Z,65.38
2018-08-09T07:21:27.279Z,65.35
2018-08-09T07:22:27.559Z,65.32
2018-08-09T07:23:27.363Z,65.24
2018-08-09T07:24:27.269Z,65.37
2018-08-09T07:25:27.369Z,65.31
2018-08-09T07:26:27.475Z,65.34
2018-08-09T07:27:27.495Z,65.35
2018-08-09T07:28:27.406Z,65.32
2018-08-09T07:29:27.665Z,65.33
2018-08-09T07:30:27.484Z,65.4
2018-08-09T07:31:27.640Z,65.37
2018-08-09T07:32:27.421Z,65.31
2018-08-09T07:33:27.387Z,65.37
2018-08-09T07:34:27.421Z,65.35
2018-08-09T07:35:27.372Z,65.27
2018-08-09T07:36:27.605Z,65.32
2018-08-09T07:37:27.435Z,65.34
2018-08-09T07:38:27.276Z,65.26
2018-08-09T07:39:27.335Z,65.29
2018-08-09T07:40:27.327Z,65.29
2018-08-09T07:41:27.440Z,65.37
2018-08-09T07:42:27.237Z,65.27
2018-08-09T07:43:27.433Z,65.33
2018-08-09T07:44:27.177Z,65.34
2018-08-09T07:45:27.179Z,65.35
2018-08-09T07:46:27.389Z,65.33
2018-08-09T07:47:27.196Z,65.38
2018-08-09T07:48:27.456Z,65.39
2018-08-09T07:49:27.360Z,65.24
2018-08-09T07:50:27.316Z,65.32
2018-08-09T07:51:27.383Z,65.32
2018-08-09T07:52:27.328Z,65.37
2018-08-09T07:53:27.285Z,65.25
2018-08-09T07:54:27.640Z,65.32
2018-08-09T07:55:27.192Z,65.32
2018-08-09T07:56:27.261Z,65.37
2018-08-09T07:57:27.208Z,65.37
2018-08-09T07:58:27.396Z,65.32
2018-08-09T07:59:27.393Z,65.29
2018-08-09T08:00:27.218Z,65.34
2018-08-09T08:01:27.385Z,65.33
2018-08-09T08:02:27.310Z,65.27
2018-08-09T08:03:27.349Z,65.34
2018-08-09T08:04:27.524Z,65.34
2018-08-09T08:05:27.445Z,65.32
2018-08-09T08:06:27.265Z,65.35
2018-08-09T08:07:27.304Z,65.37
2018-08-09T08:08:27.507Z,65.33
2018-08-09T08:09:27.437Z,65.32
2018-08-09T08:10:27.256Z,65.33
2018-08-09T08:11:27.453Z,65.39
2018-08-09T08:12:27.338Z,65.4
2018-08-09T08:13:27.552Z,65.34
2018-08-09T08:14:27.334Z,65.34
2018-08-09T08:15:27.188Z,65.25
2018-08-09T08:16:27.721Z,65.35
2018-08-09T08:17:27.474Z,65.51
2018-08-09T08:18:27.404Z,65.49
2018-08-09T08:19:27.773Z,65.37
2018-08-09T08:20:27.389Z,65.46
2018-08-09T08:21:27.402Z,65.46
2018-08-09T08:22:27.294Z,65.47
2018-08-09T08:23:27.342Z,65.48
2018-08-09T08:24:27.440Z,65.4
2018-08-09T08:25:27.375Z,65.34
2018-08-09T08:26:27.542Z,65.25
2018-08-09T08:27:27.311Z,65.26
2018-08-09T08:28:27.565Z,65.28
2018-08-09T08:29:27.365Z,65.28
2018-08-09T08:30:27.325Z,65.21
2018-08-09T08:31:27.382Z,65.25
2018-08-09T08:32:27.434Z,65.2
2018-08-09T08:33:27.187Z,65.11
2018-08-09T08:34:27.368Z,65.15
2018-08-09T08:35:27.638Z,65.11
2018-08-09T08:36:27.577Z,65.18
2018-08-09T08:37:27.410Z,65.25
2018-08-09T08:38:27.221Z,65.21
2018-08-09T08:39:27.415Z,65.17
2018-08-09T08:40:27.249Z,65.13
2018-08-09T08:41:27.603Z,65.14
2018-08-09T08:42:27.192Z,65.23
2018-08-09T08:43:27.416Z,65.27
2018-08-09T08:44:27.381Z,65.24
2018-08-09T08:45:27.459Z,65.19
2018-08-09T08:46:27.272Z,65.32
2018-08-09T08:47:27.559Z,65.38
2018-08-09T08:48:27.621Z,65.42
2018-08-09T08:49:27.288Z,65.44
2018-08-09T08:50:27.280Z,65.44
2018-08-09T08:51:27.295Z,65.48
2018-08-09T08:52:27.457Z,65.48
2018-08-09T08:53:27.441Z,65.44
2018-08-09T08:54:27.414Z,65.48
2018-08-09T08:55:27.324Z,65.53
2018-08-09T08:56:27.350Z,65.49
2018-08-09T08:57:27.329Z,65.53
2018-08-09T08:58:27.317Z,65.47
2018-08-09T08:59:27.208Z,65.55
2018-08-09T09:00:27.115Z,65.48
2018-08-09T09:01:27.300Z,65.46
2018-08-09T09:02:27.322Z,65.53
2018-08-09T09:03:27.320Z,65.49
2018-08-09T09:04:27.528Z,65.49
2018-08-09T09:05:27.254Z,65.48
2018-08-09T09:06:27.412Z,65.55
2018-08-09T09:07:27.403Z,65.49
2018-08-09T09:08:27.206Z,65.5
2018-08-09T09:09:27.222Z,65.53
2018-08-09T09:10:27.357Z,65.51
2018-08-09T09:11:27.145Z,65.49
2018-08-09T09:12:27.259Z,65.55
2018-08-09T09:13:27.264Z,65.61
2018-08-09T09:14:27.432Z,65.5
2018-08-09T09:15:27.214Z,65.55
2018-08-09T09:16:27.256Z,65.55
2018-08-09T09:17:27.287Z,65.5
2018-08-09T09:18:27.483Z,65.48
2018-08-09T09:19:27.233Z,65.51
2018-08-09T09:20:27.246Z,65.54
2018-08-09T09:21:27.385Z,65.49
2018-08-09T09:22:27.200Z,65.42
2018-08-09T09:23:27.207Z,65.4
2018-08-09T09:24:27.251Z,65.54
2018-08-09T09:25:27.400Z,65.51
2018-08-09T09:26:27.213Z,65.54
2018-08-09T09:27:27.335Z,65.48
2018-08-09T09:28:27.279Z,65.46
2018-08-09T09:29:27.310Z,65.51
2018-08-09T09:30:27.435Z,65.51
2018-08-09T09:31:27.220Z,65.47
2018-08-09T09:32:27.203Z,65.5
2018-08-09T09:33:27.300Z,65.48
2018-08-09T09:34:27.217Z,65.49
2018-08-09T09:35:27.302Z,65.49
2018-08-09T09:36:27.282Z,65.43
2018-08-09T09:37:27.374Z,65.49
2018-08-09T09:38:27.349Z,65.41
2018-08-09T09:39:27.357Z,65.48
2018-08-09T09:40:27.362Z,65.47
2018-08-09T09:41:27.508Z,65.51
2018-08-09T09:42:27.193Z,65.4
2018-08-09T09:43:27.367Z,65.42
2018-08-09T09:44:27.231Z,65.48
2018-08-09T09:45:27.360Z,65.42
2018-08-09T09:46:27.378Z,65.4
2018-08-09T09:47:27.348Z,65.4
2018-08-09T09:48:27.260Z,65.41
2018-08-09T09:49:27.556Z,65.48
2018-08-09T09:50:27.313Z,65.47
2018-08-09T09:51:27.181Z,65.42
2018-08-09T09:52:27.261Z,65.39
2018-08-09T09:53:27.307Z,65.34
2018-08-09T09:54:27.286Z,65.46
2018-08-09T09:55:27.363Z,65.37
2018-08-09T09:56:27.295Z,65.41
2018-08-09T09:57:27.171Z,65.36
2018-08-09T09:58:27.170Z,65.46
2018-08-09T09:59:27.372Z,65.45
2018-08-09T10:00:27.134Z,65.38
2018-08-09T10:01:27.217Z,65.41
2018-08-09T10:02:27.417Z,65.42
2018-08-09T10:03:27.345Z,65.43
2018-08-09T10:04:27.318Z,65.45
2018-08-09T10:05:27.188Z,65.37
2018-08-09T10:06:27.135Z,65.39
2018-08-09T10:07:27.366Z,65.31
2018-08-09T10:08:27.386Z,65.47
2018-08-09T10:09:27.126Z,65.34
2018-08-09T10:10:27.499Z,65.39
2018-08-09T10:11:27.429Z,65.33
2018-08-09T10:12:27.386Z,65.37
2018-08-09T10:13:27.181Z,65.37
2018-08-09T10:14:27.659Z,65.37
2018-08-09T10:15:27.191Z,65.37
2018-08-09T10:16:27.279Z,65.37
2018-08-09T10:17:27.251Z,65.32
2018-08-09T10:18:27.196Z,65.35
2018-08-09T10:19:27.240Z,65.37
2018-08-09T10:20:27.183Z,65.33
2018-08-09T10:21:27.300Z,65.43
2018-08-09T10:22:27.307Z,65.3
2018-08-09T10:23:27.145Z,65.42
2018-08-09T10:24:27.281Z,65.42
2018-08-09T10:25:27.223Z,65.4
2018-08-09T10:26:27.354Z,65.38
2018-08-09T10:27:27.244Z,65.35
2018-08-09T10:28:27.325Z,65.3
2018-08-09T10:29:27.398Z,65.37
2018-08-09T10:30:27.396Z,65.36
2018-08-09T10:31:27.259Z,65.34
2018-08-09T10:32:27.147Z,65.32
2018-08-09T10:33:27.388Z,65.4
2018-08-09T10:34:27.420Z,65.36
2018-08-09T10:35:27.359Z,65.37
2018-08-09T10:36:27.113Z,65.37
2018-08-09T10:37:27.279Z,65.38
2018-08-09T10:38:27.327Z,65.41
2018-08-09T10:39:27.367Z,65.33
2018-08-09T10:40:27.331Z,65.28
2018-08-09T10:41:27.326Z,65.35
2018-08-09T10:42:27.407Z,65.36
2018-08-09T10:43:27.461Z,65.3
2018-08-09T10:44:27.250Z,65.37
2018-08-09T10:45:27.210Z,65.32
2018-08-09T10:46:27.184Z,65.42
2018-08-09T10:47:27.249Z,65.3
2018-08-09T10:48:27.279Z,65.36
2018-08-09T10:49:27.294Z,65.37
2018-08-09T10:50:27.238Z,65.36
2018-08-09T10:51:27.505Z,65.35
2018-08-09T10:52:27.231Z,65.37
2018-08-09T10:53:27.333Z,65.36
2018-08-09T10:54:27.559Z,65.37
2018-08-09T10:55:27.404Z,65.36
2018-08-09T10:56:27.444Z,65.43
2018-08-09T10:57:27.457Z,65.33
2018-08-09T10:58:27.220Z,65.33
2018-08-09T10:59:27.810Z,65.41
2018-08-09T11:00:27.305Z,65.36
2018-08-09T11:01:27.272Z,65.38
2018-08-09T11:02:27.442Z,65.35
2018-08-09T11:03:27.128Z,65.31
2018-08-09T11:04:27.302Z,65.32
2018-08-09T11:05:27.407Z,65.36
2018-08-09T11:06:27.140Z,65.34
2018-08-09T11:07:27.399Z,65.44
2018-08-09T11:08:27.296Z,65.32
2018-08-09T11:09:27.330Z,65.32
2018-08-09T11:10:27.210Z,65.37
2018-08-09T11:11:27.342Z,65.36
2018-08-09T11:12:27.300Z,65.43
2018-08-09T11:13:27.461Z,65.29
2018-08-09T11:14:27.252Z,65.31
2018-08-09T11:15:27.262Z,65.31
2018-08-09T11:16:27.260Z,65.38
2018-08-09T11:17:27.389Z,65.36
2018-08-09T11:18:27.238Z,65.3
2018-08-09T11:19:27.438Z,65.37
2018-08-09T11:20:27.164Z,65.36
2018-08-09T11:21:27.266Z,65.36
2018-08-09T11:22:27.328Z,65.32
2018-08-09T11:23:27.333Z,65.31
2018-08-09T11:24:27.342Z,65.35
2018-08-09T11:25:27.219Z,65.31
2018-08-09T11:26:27.285Z,65.36
2018-08-09T11:27:27.449Z,65.3
2018-08-09T11:28:27.349Z,65.33
2018-08-09T11:29:27.280Z,65.28
2018-08-09T11:30:27.160Z,65.34
2018-08-09T11:31:27.316Z,65.35
2018-08-09T11:32:27.140Z,65.29
2018-08-09T11:33:27.328Z,65.65
2018-08-09T11:34:27.305Z,65.43
2018-08-09T11:35:27.382Z,65.48
2018-08-09T11:36:27.213Z,65.42
2018-08-09T11:37:27.178Z,65.66
2018-08-09T11:38:27.363Z,65.49
2018-08-09T11:39:27.159Z,65.61
2018-08-09T11:40:27.402Z,65.46
2018-08-09T11:41:27.203Z,65.43
2018-08-09T11:42:27.160Z,65.47
2018-08-09T11:43:27.290Z,65.37
2018-08-09T11:44:27.176Z,65.34
2018-08-09T11:45:27.240Z,65.39
2018-08-09T11:46:27.369Z,65.29
2018-08-09T11:47:27.468Z,65.34
2018-08-09T11:48:27.202Z,65.39
2018-08-09T11:49:27.401Z,65.32
2018-08-09T11:50:27.299Z,65.32
2018-08-09T11:51:27.295Z,65.43
2018-08-09T11:52:27.236Z,65.29
2018-08-09T11:53:27.350Z,65.17
2018-08-09T11:54:27.245Z,65.28
2018-08-09T11:55:27.252Z,65.39
2018-08-09T11:56:27.438Z,65.31
2018-08-09T11:57:27.193Z,65.34
2018-08-09T11:58:27.329Z,65.48
2018-08-09T11:59:27.315Z,65.59
2018-08-09T12:00:27.384Z,65.51
2018-08-09T12:01:27.375Z,65.71
2018-08-09T12:02:27.382Z,65.66
2018-08-09T12:03:27.390Z,65.68
2018-08-09T12:04:27.465Z,65.62
2018-08-09T12:05:27.301Z,65.65
2018-08-09T12:06:27.355Z,65.57
2018-08-09T12:07:27.286Z,65.54
2018-08-09T12:08:27.200Z,65.61
2018-08-09T12:09:27.458Z,65.61
2018-08-09T12:10:27.242Z,65.55
2018-08-09T12:11:27.134Z,65.54
2018-08-09T12:12:27.173Z,65.57
2018-08-09T12:13:27.478Z,65.58
2018-08-09T12:14:29.610Z,65.6
2018-08-09T12:15:27.181Z,65.65
2018-08-09T12:16:27.416Z,65.58
2018-08-09T12:17:27.119Z,65.66
2018-08-09T12:18:27.592Z,65.59
2018-08-09T12:19:27.365Z,65.6
2018-08-09T12:20:27.332Z,65.56
2018-08-09T12:21:27.313Z,65.59
2018-08-09T12:22:27.364Z,65.57
2018-08-09T12:23:27.290Z,65.59
2018-08-09T12:24:27.326Z,65.56
2018-08-09T12:25:27.378Z,65.58
2018-08-09T12:26:27.450Z,65.55
2018-08-09T12:27:27.311Z,65.57
2018-08-09T12:28:27.222Z,65.54
2018-08-09T12:29:27.521Z,65.57
2018-08-09T12:30:27.352Z,65.57
2018-08-09T12:31:27.380Z,65.53
2018-08-09T12:32:27.303Z,65.57
2018-08-09T12:33:27.295Z,65.53
2018-08-09T12:34:27.260Z,65.49
2018-08-09T12:35:27.165Z,65.5
2018-08-09T12:36:27.486Z,65.51
2018-08-09T12:37:27.473Z,65.53
2018-08-09T12:38:27.277Z,65.5
2018-08-09T12:39:27.366Z,65.51
2018-08-09T12:40:27.232Z,65.47
2018-08-09T12:41:27.645Z,65.47
2018-08-09T12:42:27.154Z,65.54
2018-08-09T12:43:27.207Z,65.55
2018-08-09T12:44:27.357Z,65.57
2018-08-09T12:45:27.580Z,65.52
2018-08-09T12:46:27.240Z,65.55
2018-08-09T12:47:27.347Z,65.5
2018-08-09T12:48:27.292Z,65.45
2018-08-09T12:49:27.385Z,65.5
2018-08-09T12:50:27.211Z,65.45
2018-08-09T12:51:27.210Z,65.47
2018-08-09T12:52:27.326Z,65.54
2018-08-09T12:53:27.622Z,65.53
2018-08-09T12:54:27.283Z,65.51